createdAt,value
2022-08-27T00:02:10.725Z,98981.84
2022-08-27T00:04:41.397Z,99025.06
2022-08-27T00:07:10.853Z,99023.81
2022-08-27T00:09:40.152Z,98976.19
2022-08-27T00:12:09.637Z,99012.94
2022-08-27T00:14:39.673Z,99016.16
2022-08-27T00:17:08.337Z,99012.63
2022-08-27T00:19:37.838Z,98998.03
2022-08-27T00:22:08.348Z,99004.78
2022-08-27T00:24:42.042Z,98935.88
2022-08-27T00:27:18.441Z,99005.97
2022-08-27T00:29:48.238Z,98958.03
2022-08-27T00:32:17.198Z,98963.06
2022-08-27T00:34:45.581Z,99009.41
2022-08-27T00:37:14.329Z,99001.50
2022-08-27T00:39:42.450Z,99011.59
2022-08-27T00:42:11.833Z,99002.19
2022-08-27T00:44:40.858Z,99029.59
2022-08-27T00:47:17.453Z,99023.19
2022-08-27T00:49:56.397Z,99026.75
2022-08-27T00:52:57.651Z,99025.88
2022-08-27T00:55:35.926Z,98992.28
2022-08-27T00:58:17.769Z,99027.09
2022-08-27T01:00:46.751Z,99019.44
2022-08-27T01:03:16.012Z,99015.91
2022-08-27T01:05:45.921Z,98973.72
2022-08-27T01:08:21.527Z,98970.75
2022-08-27T01:10:51.518Z,98991.97
2022-08-27T01:13:59.276Z,99007.22
2022-08-27T01:16:21.730Z,99017.59
2022-08-27T01:18:51.876Z,98987.53
2022-08-27T01:21:19.852Z,99013.88
2022-08-27T01:24:21.865Z,98987.28
2022-08-27T01:26:50.477Z,98961.97
2022-08-27T01:29:19.188Z,98981.97
2022-08-27T01:31:48.355Z,98998.25
2022-08-27T01:34:16.688Z,98998.50
2022-08-27T01:36:44.904Z,98949.09
2022-08-27T01:39:13.039Z,98997.00
2022-08-27T01:41:41.378Z,98996.19
2022-08-27T01:44:09.538Z,98991.19
2022-08-27T01:46:37.934Z,98994.72
2022-08-27T01:49:06.621Z,98990.63
2022-08-27T01:51:35.246Z,98977.81
2022-08-27T01:54:03.710Z,98902.59
2022-08-27T01:56:31.696Z,98946.28
2022-08-27T01:59:00.176Z,98994.84
2022-08-27T02:01:28.792Z,98984.59
2022-08-27T02:03:57.093Z,98976.41
2022-08-27T02:06:25.353Z,98989.16
2022-08-27T02:08:53.529Z,98987.13
2022-08-27T02:11:21.916Z,98985.53
2022-08-27T02:13:50.092Z,98920.06
2022-08-27T02:16:18.758Z,98985.53
2022-08-27T02:18:47.453Z,98976.34
2022-08-27T02:21:15.801Z,98981.56
2022-08-27T02:23:45.811Z,98974.91
2022-08-27T02:26:14.200Z,98977.69
2022-08-27T02:28:42.503Z,98988.84
2022-08-27T02:31:10.886Z,98961.34
2022-08-27T02:33:38.992Z,98978.94
2022-08-27T02:36:07.595Z,98975.81
2022-08-27T02:38:35.985Z,98925.50
2022-08-27T02:41:04.124Z,98972.31
2022-08-27T02:43:32.355Z,98974.34
2022-08-27T02:46:03.828Z,98956.31
2022-08-27T02:48:32.056Z,98986.06
2022-08-27T02:51:00.168Z,98960.56
2022-08-27T02:53:28.754Z,98929.09
2022-08-27T02:55:56.879Z,98921.97
2022-08-27T02:58:25.153Z,98961.22
2022-08-27T03:00:53.706Z,98950.88
2022-08-27T03:03:21.815Z,98967.31
2022-08-27T03:05:50.122Z,98921.06
2022-08-27T03:08:18.292Z,98960.13
2022-08-27T03:10:46.431Z,98966.38
2022-08-27T03:13:14.758Z,98971.97
2022-08-27T03:15:43.039Z,98957.84
2022-08-27T03:18:20.236Z,98913.59
2022-08-27T03:20:56.015Z,98974.47
2022-08-27T03:23:28.252Z,98963.75
2022-08-27T03:26:00.617Z,98957.09
2022-08-27T03:28:34.209Z,98913.91
2022-08-27T03:31:08.022Z,98962.13
2022-08-27T03:33:40.600Z,98971.22
2022-08-27T03:36:09.704Z,98965.31
2022-08-27T03:38:38.642Z,98961.88
2022-08-27T03:41:06.933Z,98961.41
2022-08-27T03:43:36.067Z,98925.78
2022-08-27T03:46:04.213Z,98951.84
2022-08-27T03:48:32.949Z,98954.31
2022-08-27T03:51:11.640Z,98971.88
2022-08-27T03:53:42.098Z,98924.94
2022-08-27T03:56:10.966Z,98913.78
2022-08-27T03:58:40.219Z,98963.84
2022-08-27T04:01:09.318Z,98970.38
2022-08-27T04:03:38.324Z,98976.38
2022-08-27T04:06:07.412Z,98966.06
2022-08-27T04:08:36.558Z,98973.88
2022-08-27T04:11:08.360Z,98979.81
2022-08-27T04:13:37.672Z,98967.19
2022-08-27T04:16:07.211Z,98924.25
2022-08-27T04:18:35.651Z,98964.78
2022-08-27T04:21:13.285Z,98973.19
2022-08-27T04:23:42.725Z,98915.22
2022-08-27T04:26:15.899Z,98927.16
2022-08-27T04:28:48.661Z,98970.00
2022-08-27T04:31:17.409Z,98919.03
2022-08-27T04:33:51.243Z,98954.06
2022-08-27T04:36:20.864Z,98968.72
2022-08-27T04:38:50.115Z,98952.63
2022-08-27T04:41:26.737Z,98972.50
2022-08-27T04:43:57.960Z,98942.66
2022-08-27T04:46:31.354Z,98927.88
2022-08-27T04:49:02.836Z,98966.53
2022-08-27T04:51:35.884Z,98956.41
2022-08-27T04:54:06.702Z,98951.88
2022-08-27T04:56:36.956Z,98949.44
2022-08-27T04:59:09.324Z,98964.28
2022-08-27T05:01:40.613Z,98961.03
2022-08-27T05:04:11.182Z,98965.03
2022-08-27T05:06:39.935Z,98972.69
2022-08-27T05:09:08.834Z,98955.50
2022-08-27T05:11:37.610Z,98962.22
2022-08-27T05:14:10.935Z,98962.56
2022-08-27T05:16:40.810Z,98972.56
2022-08-27T05:19:14.973Z,98970.41
2022-08-27T05:21:50.804Z,98945.59
2022-08-27T05:24:19.860Z,98934.72
2022-08-27T05:26:48.434Z,98977.66
2022-08-27T05:29:17.094Z,98958.19
2022-08-27T05:31:48.217Z,98969.59
2022-08-27T05:34:25.546Z,98978.94
2022-08-27T05:36:55.193Z,98931.75
2022-08-27T05:39:23.329Z,98891.38
2022-08-27T05:41:53.066Z,98968.91
2022-08-27T05:47:10.264Z,98945.50
2022-08-27T05:49:38.814Z,98978.09
2022-08-27T05:52:11.964Z,98985.00
2022-08-27T05:54:40.786Z,98991.25
2022-08-27T05:57:09.508Z,98987.47
2022-08-27T05:59:56.601Z,98989.03
2022-08-27T06:02:24.951Z,98984.56
2022-08-27T06:04:54.018Z,98988.22
2022-08-27T06:07:22.320Z,98988.53
2022-08-27T06:09:50.433Z,98994.03
2022-08-27T06:12:18.596Z,98946.72
2022-08-27T06:14:46.955Z,98987.91
2022-08-27T06:17:15.009Z,98994.28
2022-08-27T06:19:43.954Z,98955.63
2022-08-27T06:22:12.553Z,98984.00
2022-08-27T06:24:43.536Z,98995.41
2022-08-27T06:27:17.248Z,99003.81
2022-08-27T06:29:46.351Z,98988.50
2022-08-27T06:32:15.342Z,98930.53
2022-08-27T06:34:43.748Z,99005.66
2022-08-27T06:37:11.975Z,99005.13
2022-08-27T06:39:40.683Z,98962.66
2022-08-27T06:42:13.272Z,98999.53
2022-08-27T06:44:42.344Z,98969.41
2022-08-27T06:47:11.325Z,99004.47
2022-08-27T06:49:41.662Z,98997.34
2022-08-27T06:52:15.898Z,99000.13
2022-08-27T06:54:46.091Z,98994.34
2022-08-27T06:57:14.388Z,98998.56
2022-08-27T06:59:43.404Z,98997.63
2022-08-27T07:02:11.826Z,98998.97
2022-08-27T07:04:40.479Z,99005.22
2022-08-27T07:07:13.150Z,98975.59
2022-08-27T07:09:41.571Z,98995.66
2022-08-27T07:12:09.756Z,98991.06
2022-08-27T07:14:38.478Z,98949.78
2022-08-27T07:17:11.341Z,98954.97
2022-08-27T07:19:45.813Z,98939.72
2022-08-27T07:22:14.123Z,98998.00
2022-08-27T07:24:44.017Z,98995.69
2022-08-27T07:27:12.585Z,98981.75
2022-08-27T07:29:40.846Z,98958.25
2022-08-27T07:32:09.358Z,98959.94
2022-08-27T07:34:37.689Z,98982.59
2022-08-27T07:37:05.881Z,98960.94
2022-08-27T07:39:34.290Z,98983.97
2022-08-27T07:42:21.191Z,99000.06
2022-08-27T07:44:50.224Z,98934.31
2022-08-27T07:47:18.810Z,98999.31
2022-08-27T07:49:47.025Z,98968.66
2022-08-27T07:52:17.775Z,98998.88
2022-08-27T07:54:45.913Z,99006.88
2022-08-27T07:57:14.100Z,98994.84
2022-08-27T07:59:42.336Z,98989.59
2022-08-27T08:02:10.512Z,98966.28
2022-08-27T08:04:38.840Z,98994.50
2022-08-27T08:07:06.930Z,98989.34
2022-08-27T08:09:35.093Z,98990.44
2022-08-27T08:12:05.349Z,98960.47
2022-08-27T08:14:33.661Z,98991.88
2022-08-27T08:17:10.066Z,98999.72
2022-08-27T08:19:40.653Z,98987.41
2022-08-27T08:22:09.294Z,99002.75
2022-08-27T08:24:37.408Z,98868.63
2022-08-27T08:27:07.345Z,98949.59
2022-08-27T08:29:36.637Z,98995.09
2022-08-27T08:32:07.656Z,98937.00
2022-08-27T08:34:36.988Z,98958.94
2022-08-27T08:37:07.377Z,98990.47
2022-08-27T08:39:38.570Z,98953.38
2022-08-27T08:42:18.464Z,98950.38
2022-08-27T08:44:53.926Z,98989.88
2022-08-27T08:47:49.032Z,98956.41
2022-08-27T08:51:02.237Z,98988.53
2022-08-27T08:53:55.088Z,98981.91
2022-08-27T08:57:00.081Z,98947.47
2022-08-27T08:59:51.035Z,98932.94
2022-08-27T09:02:19.582Z,98972.53
2022-08-27T09:04:47.858Z,98973.88
2022-08-27T09:07:38.986Z,98973.03
2022-08-27T09:10:20.843Z,98976.00
2022-08-27T09:12:49.246Z,98938.41
2022-08-27T09:15:23.684Z,98947.03
2022-08-27T09:17:52.124Z,98969.19
2022-08-27T09:20:25.916Z,98966.63
2022-08-27T09:23:22.162Z,98927.34
2022-08-27T09:25:50.289Z,98965.41
2022-08-27T09:28:49.526Z,98948.78
2022-08-27T09:31:21.551Z,98964.34
2022-08-27T09:33:55.994Z,98953.00
2022-08-27T09:36:26.334Z,98938.84
2022-08-27T09:39:02.030Z,98981.47
2022-08-27T09:41:43.121Z,98938.03
2022-08-27T09:44:13.249Z,98983.41
2022-08-27T09:47:00.185Z,98960.06
2022-08-27T09:49:29.322Z,98929.75
2022-08-27T09:51:59.283Z,98972.56
2022-08-27T09:54:42.851Z,98971.44
2022-08-27T09:57:14.266Z,98961.56
2022-08-27T09:59:55.370Z,98934.25
2022-08-27T10:02:26.509Z,98963.66
2022-08-27T10:05:01.247Z,98965.16
2022-08-27T10:08:22.115Z,98972.69
2022-08-27T10:11:01.263Z,98972.00
2022-08-27T10:13:29.177Z,98971.03
2022-08-27T10:16:34.873Z,98960.88
2022-08-27T10:19:32.168Z,98963.09
2022-08-27T10:22:08.654Z,98960.09
2022-08-27T10:25:15.551Z,98968.38
2022-08-27T10:27:59.318Z,98963.22
2022-08-27T10:30:55.317Z,98964.19
2022-08-27T10:33:38.020Z,98969.28
2022-08-27T10:36:57.663Z,98971.75
2022-08-27T10:39:54.706Z,98967.34
2022-08-27T10:42:39.951Z,98957.63
2022-08-27T10:45:31.078Z,98926.22
2022-08-27T10:48:19.521Z,98964.19
2022-08-27T10:51:08.861Z,98954.78
2022-08-27T10:53:45.556Z,98960.59
2022-08-27T10:56:45.220Z,98909.06
2022-08-27T10:59:40.857Z,98957.25
2022-08-27T11:02:40.399Z,98915.94
2022-08-27T11:05:44.036Z,98917.50
2022-08-27T11:08:22.337Z,98960.09
2022-08-27T11:11:57.056Z,98949.03
2022-08-27T11:14:01.276Z,98953.41
2022-08-27T11:16:45.904Z,98953.97
2022-08-27T11:19:26.841Z,98964.13
2022-08-27T11:22:24.137Z,98958.06
2022-08-27T11:25:58.347Z,98955.16
2022-08-27T11:29:00.310Z,98926.06
2022-08-27T11:31:53.879Z,98947.69
2022-08-27T11:34:40.378Z,98946.44
2022-08-27T11:37:45.849Z,98945.28
2022-08-27T11:40:41.819Z,98900.53
2022-08-27T11:43:16.303Z,98928.75
2022-08-27T11:46:03.662Z,98898.28
2022-08-27T11:48:36.933Z,98923.88
2022-08-27T11:51:15.879Z,98926.56
2022-08-27T11:54:27.361Z,98927.06
2022-08-27T11:56:55.503Z,98925.25
2022-08-27T11:59:33.261Z,98924.03
2022-08-27T12:02:27.985Z,98888.75
2022-08-27T12:05:26.618Z,98920.31
2022-08-27T12:07:55.062Z,98917.75
2022-08-27T12:11:13.132Z,98916.34
2022-08-27T12:14:33.913Z,98915.84
2022-08-27T12:17:17.089Z,98905.78
2022-08-27T12:20:52.664Z,98920.88
2022-08-27T12:24:04.986Z,98906.06
2022-08-27T12:26:40.066Z,98916.75
2022-08-27T12:29:46.731Z,98912.63
2022-08-27T12:32:40.342Z,98885.09
2022-08-27T12:35:20.277Z,98910.81
2022-08-27T12:37:57.794Z,98917.38
2022-08-27T12:40:38.886Z,98871.59
2022-08-27T12:43:13.893Z,98862.59
2022-08-27T12:45:57.317Z,98907.91
2022-08-27T12:48:51.128Z,98861.31
2022-08-27T12:51:31.565Z,98903.84
2022-08-27T12:54:49.761Z,98919.00
2022-08-27T12:57:47.778Z,98908.06
2022-08-27T13:00:26.393Z,98908.56
2022-08-27T13:03:22.615Z,98911.16
2022-08-27T13:05:51.307Z,98903.03
2022-08-27T13:08:22.841Z,98904.97
2022-08-27T13:10:51.882Z,98903.41
2022-08-27T13:13:25.486Z,98902.38
2022-08-27T13:15:59.747Z,98867.72
2022-08-27T13:18:30.520Z,98911.16
2022-08-27T13:21:09.584Z,98921.59
2022-08-27T13:23:44.153Z,98909.88
2022-08-27T13:26:13.101Z,98876.78
2022-08-27T13:28:43.842Z,98912.31
2022-08-27T13:31:12.181Z,98918.50
2022-08-27T13:33:43.151Z,98910.16
2022-08-27T13:36:12.469Z,98869.03
2022-08-27T13:38:50.137Z,98914.47
2022-08-27T13:41:33.477Z,98871.00
2022-08-27T13:44:34.967Z,98866.13
2022-08-27T13:47:21.075Z,98900.31
2022-08-27T13:49:50.614Z,98833.06
2022-08-27T13:52:29.451Z,98894.41
2022-08-27T13:55:08.048Z,98866.28
2022-08-27T13:57:49.788Z,98898.47
2022-08-27T14:00:26.870Z,98900.63
2022-08-27T14:02:56.731Z,98858.50
2022-08-27T14:05:24.806Z,98898.09
2022-08-27T14:07:59.831Z,98889.16
2022-08-27T14:10:44.880Z,98881.47
2022-08-27T14:13:26.398Z,98890.56
2022-08-27T14:16:00.951Z,98890.59
2022-08-27T14:18:57.903Z,98897.19
2022-08-27T14:21:25.819Z,98899.94
2022-08-27T14:23:54.506Z,98902.19
2022-08-27T14:26:23.027Z,98904.84
2022-08-27T14:28:51.383Z,98900.41
2022-08-27T14:31:19.860Z,98897.97
2022-08-27T14:33:49.136Z,98894.16
2022-08-27T14:36:17.367Z,98871.06
2022-08-27T14:38:49.085Z,98901.34
2022-08-27T14:41:18.899Z,98892.94
2022-08-27T14:43:50.286Z,98884.44
2022-08-27T14:46:25.463Z,98899.13
2022-08-27T14:48:56.834Z,98897.97
2022-08-27T14:51:31.597Z,98900.09
2022-08-27T14:54:00.691Z,98886.84
2022-08-27T14:56:28.798Z,98905.28
2022-08-27T14:58:57.395Z,98871.00
2022-08-27T15:01:27.702Z,98906.28
2022-08-27T15:03:57.705Z,98890.41
2022-08-27T15:06:27.370Z,98902.34
2022-08-27T15:08:56.124Z,98898.75
2022-08-27T15:11:31.678Z,98899.75
2022-08-27T15:14:03.018Z,98861.97
2022-08-27T15:16:40.258Z,98879.97
2022-08-27T15:19:12.977Z,98857.66
2022-08-27T15:21:44.497Z,98883.56
2022-08-27T15:24:28.496Z,98857.78
2022-08-27T15:26:58.889Z,98887.25
2022-08-27T15:29:27.977Z,98877.91
2022-08-27T15:31:56.278Z,98875.00
2022-08-27T15:34:24.485Z,98881.31
2022-08-27T15:36:53.600Z,98879.03
2022-08-27T15:39:21.791Z,98881.88
2022-08-27T15:42:05.938Z,98841.72
2022-08-27T15:44:38.411Z,98881.19
2022-08-27T15:47:07.326Z,98875.13
2022-08-27T15:49:35.582Z,98872.38
2022-08-27T15:52:05.381Z,98880.25
2022-08-27T15:54:33.866Z,98867.69
2022-08-27T15:57:02.585Z,98801.94
2022-08-27T15:59:31.125Z,98827.16
2022-08-27T16:02:00.659Z,98870.44
2022-08-27T16:04:28.892Z,98834.59
2022-08-27T16:06:57.135Z,98834.00
2022-08-27T16:09:25.400Z,98851.06
2022-08-27T16:11:53.625Z,98881.44
2022-08-27T16:14:22.857Z,98873.59
2022-08-27T16:16:51.975Z,98804.56
2022-08-27T16:19:21.112Z,98845.31
2022-08-27T16:21:51.214Z,98872.81
2022-08-27T16:24:21.818Z,98878.47
2022-08-27T16:26:50.284Z,98880.38
2022-08-27T16:29:18.990Z,98827.75
2022-08-27T16:31:47.415Z,98876.06
2022-08-27T16:34:25.449Z,98863.25
2022-08-27T16:36:54.506Z,98882.19
2022-08-27T16:39:23.965Z,98865.63
2022-08-27T16:41:52.198Z,98795.22
2022-08-27T16:44:20.352Z,98869.34
2022-08-27T16:46:48.622Z,98878.44
2022-08-27T16:49:35.567Z,98866.19
2022-08-27T16:52:06.426Z,98872.09
2022-08-27T16:54:36.043Z,98874.44
2022-08-27T16:57:04.770Z,98855.34
2022-08-27T16:59:33.421Z,98856.56
2022-08-27T17:02:01.683Z,98871.16
2022-08-27T17:04:38.091Z,98870.44
2022-08-27T17:07:11.438Z,98869.69
2022-08-27T17:09:40.233Z,98877.75
2022-08-27T17:12:10.728Z,98866.03
2022-08-27T17:14:39.555Z,98851.84
2022-08-27T17:17:09.596Z,98883.50
2022-08-27T17:19:37.647Z,98889.75
2022-08-27T17:22:10.354Z,98902.53
2022-08-27T17:24:40.137Z,98860.53
2022-08-27T17:27:08.715Z,98891.94
2022-08-27T17:29:37.737Z,98917.53
2022-08-27T17:32:09.173Z,98907.66
2022-08-27T17:34:38.003Z,98895.66
2022-08-27T17:37:07.322Z,98907.13
2022-08-27T17:39:35.779Z,98893.81
2022-08-27T17:42:07.280Z,98875.53
2022-08-27T17:44:37.145Z,98883.59
2022-08-27T17:47:08.811Z,98919.06
2022-08-27T17:49:38.609Z,98927.09
2022-08-27T17:52:15.510Z,98843.91
2022-08-27T17:54:54.424Z,98930.44
2022-08-27T17:57:29.553Z,98937.41
2022-08-27T18:00:12.046Z,98896.88
2022-08-27T18:02:47.689Z,98893.19
2022-08-27T18:05:18.495Z,98907.56
2022-08-27T18:07:48.460Z,98954.19
2022-08-27T18:10:24.462Z,98955.88
2022-08-27T18:12:53.835Z,98964.78
2022-08-27T18:15:26.916Z,98936.91
2022-08-27T18:17:57.387Z,98972.09
2022-08-27T18:20:28.861Z,98932.00
2022-08-27T18:22:57.787Z,98958.06
2022-08-27T18:25:35.262Z,98967.97
2022-08-27T18:28:17.556Z,98913.59
2022-08-27T18:30:46.855Z,98898.50
2022-08-27T18:33:15.416Z,98967.94
2022-08-27T18:35:44.524Z,98979.16
2022-08-27T18:38:15.801Z,98967.03
2022-08-27T18:40:50.039Z,98986.97
2022-08-27T18:43:23.539Z,98992.28
2022-08-27T18:45:52.045Z,98989.09
2022-08-27T18:48:22.653Z,98989.34
2022-08-27T18:50:57.417Z,98991.69
2022-08-27T18:53:30.684Z,98984.00
2022-08-27T18:56:00.491Z,98987.44
2022-08-27T18:58:32.135Z,98998.91
2022-08-27T19:01:04.674Z,98909.53
2022-08-27T19:03:50.760Z,98999.84
2022-08-27T19:06:21.119Z,98948.53
2022-08-27T19:08:52.395Z,98945.44
2022-08-27T19:11:20.740Z,98980.63
2022-08-27T19:13:50.741Z,98998.25
2022-08-27T19:16:48.020Z,99000.34
2022-08-27T19:19:18.831Z,98953.78
2022-08-27T19:21:51.386Z,98996.63
2022-08-27T19:24:22.255Z,98939.69
2022-08-27T19:26:51.534Z,98995.84
2022-08-27T19:29:20.122Z,98996.72
2022-08-27T19:31:48.504Z,98996.44
2022-08-27T19:34:16.967Z,98907.22
2022-08-27T19:36:45.241Z,98970.44
2022-08-27T19:39:14.002Z,98989.16
2022-08-27T19:41:42.145Z,98987.50
2022-08-27T19:44:10.480Z,98988.09
2022-08-27T19:46:38.821Z,98993.81
2022-08-27T19:49:07.027Z,98988.63
2022-08-27T19:51:35.388Z,98980.03
2022-08-27T19:54:04.104Z,98989.81
2022-08-27T19:56:33.792Z,98973.34
2022-08-27T19:59:16.280Z,98988.78
2022-08-27T20:01:50.082Z,98987.53
2022-08-27T20:04:18.919Z,98987.00
2022-08-27T20:06:49.997Z,98994.41
2022-08-27T20:09:21.396Z,98952.69
2022-08-27T20:11:50.793Z,98997.00
2022-08-27T20:14:19.465Z,99000.66
2022-08-27T20:16:47.753Z,98956.91
2022-08-27T20:19:17.717Z,98991.88
2022-08-27T20:21:46.196Z,98995.81
2022-08-27T20:24:14.606Z,99003.53
2022-08-27T20:26:43.562Z,99001.97
2022-08-27T20:29:15.069Z,98994.72
2022-08-27T20:32:01.568Z,98979.72
2022-08-27T20:34:30.073Z,98929.47
2022-08-27T20:36:59.292Z,98962.47
2022-08-27T20:39:27.685Z,98954.38
2022-08-27T20:41:55.934Z,99009.50
2022-08-27T20:44:25.342Z,99002.28
2022-08-27T20:46:59.963Z,98998.56
2022-08-27T20:49:29.216Z,99018.44
2022-08-27T20:52:02.848Z,99004.97
2022-08-27T20:54:34.215Z,99007.84
2022-08-27T20:57:04.355Z,99019.03
2022-08-27T20:59:52.125Z,98921.09
2022-08-27T21:02:29.155Z,99001.69
2022-08-27T21:04:58.335Z,99000.28
2022-08-27T21:07:27.698Z,98988.91
2022-08-27T21:09:57.554Z,98969.41
2022-08-27T21:12:28.536Z,98954.91
2022-08-27T21:14:57.974Z,99002.34
2022-08-27T21:17:28.938Z,98995.94
2022-08-27T21:19:57.582Z,98987.88
2022-08-27T21:22:26.932Z,98991.38
2022-08-27T21:24:56.229Z,98992.00
2022-08-27T21:27:24.471Z,99007.34
2022-08-27T21:29:54.369Z,98999.88
2022-08-27T21:32:22.830Z,98973.97
2022-08-27T21:34:51.158Z,98989.13
2022-08-27T21:37:19.431Z,98985.78
2022-08-27T21:39:48.537Z,98991.19
2022-08-27T21:42:16.920Z,98998.22
2022-08-27T21:44:45.103Z,98996.75
2022-08-27T21:47:13.404Z,98950.31
2022-08-27T21:49:42.218Z,98987.81
2022-08-27T21:52:10.689Z,98967.06
2022-08-27T21:54:42.430Z,98990.72
2022-08-27T21:57:13.971Z,98990.91
2022-08-27T21:59:47.125Z,98982.00
2022-08-27T22:02:38.870Z,98982.41
2022-08-27T22:05:07.670Z,98987.31
2022-08-27T22:07:36.445Z,98990.97
2022-08-27T22:10:06.806Z,98946.69
2022-08-27T22:12:37.125Z,98980.63
2022-08-27T22:15:09.010Z,98984.31
2022-08-27T22:17:37.664Z,98982.47
2022-08-27T22:20:10.129Z,98980.59
2022-08-27T22:22:38.912Z,98938.44
2022-08-27T22:25:08.953Z,98991.63
2022-08-27T22:27:37.283Z,98980.25
2022-08-27T22:30:11.024Z,98979.00
2022-08-27T22:32:40.956Z,98992.25
2022-08-27T22:35:12.406Z,98961.34
2022-08-27T22:37:40.907Z,98989.66
2022-08-27T22:40:20.722Z,98987.41
2022-08-27T22:42:50.215Z,98985.56
2022-08-27T22:45:19.233Z,98899.69
2022-08-27T22:47:48.724Z,98985.91
2022-08-27T22:50:17.633Z,98978.66
2022-08-27T22:52:47.871Z,98970.59
2022-08-27T22:55:19.731Z,98941.09
2022-08-27T22:57:53.509Z,98925.91
2022-08-27T23:00:26.919Z,98972.75
2022-08-27T23:02:55.656Z,98970.88
2022-08-27T23:05:25.257Z,98962.56
2022-08-27T23:07:55.318Z,98913.81
2022-08-27T23:10:24.622Z,98972.66
2022-08-27T23:12:53.781Z,98973.22
2022-08-27T23:15:26.569Z,98942.75
2022-08-27T23:17:55.887Z,98962.88
2022-08-27T23:20:26.071Z,98970.22
2022-08-27T23:22:55.595Z,98971.94
2022-08-27T23:25:45.153Z,98944.56
2022-08-27T23:28:15.329Z,98964.88
2022-08-27T23:30:45.474Z,98976.81
2022-08-27T23:33:15.100Z,98969.03
2022-08-27T23:35:48.305Z,98963.78
2022-08-27T23:38:21.794Z,98968.91
2022-08-27T23:40:50.817Z,98971.34
2022-08-27T23:43:20.406Z,98914.38
2022-08-27T23:45:50.712Z,98964.19
2022-08-27T23:48:20.512Z,98882.59
2022-08-27T23:50:48.856Z,98888.84
2022-08-27T23:53:17.605Z,98930.78
2022-08-27T23:55:45.801Z,98971.09
2022-08-27T23:58:14.067Z,98923.31
